Time;durP1;ratioP1;P1;durP2;ratioP2;P2;SDS_P1;SDS_P2;PMS_P1;PMS_P2;Temp;Humidity;BMP_temperature;BMP_pressure;BME280_temperature;BME280_humidity;BME280_pressure;Samples;Min_cycle;Max_cycle;Signal;HPM_P1;HPM_P2
2023/11/04 00:00:51;;;;;;;2.72;1.42;;;;;;;5.95;83.44;97744.78;30841649;28;125518;-63
2023/11/04 00:15:51;;;;;;;1.30;1.00;;;;;;;6.00;83.15;97766.16;30839694;28;96528;-64
2023/11/04 00:30:52;;;;;;;4.93;1.20;;;;;;;6.18;83.38;97794.66;30838446;28;125416;-63
2023/11/04 00:45:52;;;;;;;2.10;1.02;;;;;;;6.34;83.48;97809.31;30837360;28;126570;-63
2023/11/04 01:00:52;;;;;;;1.80;0.98;;;;;;;6.50;82.81;97824.00;30854249;28;125467;-63
2023/11/04 01:15:52;;;;;;;1.15;0.73;;;;;;;6.65;83.06;97821.97;30856782;28;126782;-62
2023/11/04 01:30:53;;;;;;;1.77;1.17;;;;;;;6.70;83.30;97843.34;30856225;28;115069;-62
2023/11/04 01:46:09;;;;;;;3.20;1.27;;;;;;;6.76;83.34;97860.25;30854321;28;96736;-62
2023/11/04 02:01:09;;;;;;;3.20;1.30;;;;;;;6.78;83.00;97876.75;30852582;28;96996;-63
2023/11/04 02:16:09;;;;;;;3.05;1.27;;;;;;;6.81;83.41;97884.28;30851505;28;96664;-62
2023/11/04 02:31:10;;;;;;;3.20;1.65;;;;;;;6.83;83.15;97897.28;30849958;28;125552;-62
2023/11/04 02:46:10;;;;;;;6.05;2.25;;;;;;;6.86;83.48;97913.59;30848509;28;125539;-63
2023/11/04 03:01:10;;;;;;;4.88;2.47;;;;;;;6.90;83.43;97924.56;30846840;28;127195;-63
2023/11/04 03:16:20;;;;;;;4.32;2.47;;;;;;;6.92;83.33;97939.25;30845401;28;96698;-63
2023/11/04 03:31:20;;;;;;;2.07;1.63;;;;;;;6.91;83.37;97942.09;30844356;28;96703;-62
2023/11/04 03:46:20;;;;;;;1.88;1.15;;;;;;;6.84;82.87;97946.56;30842315;28;126752;-62
2023/11/04 04:01:22;;;;;;;3.95;1.27;;;;;;;6.84;82.80;97949.22;30840077;28;114221;-63
2023/11/04 04:16:23;;;;;;;1.50;1.00;;;;;;;6.61;82.80;97955.66;30840757;28;97023;-63
2023/11/04 04:31:23;;;;;;;2.17;1.10;;;;;;;6.57;82.99;97972.97;30838443;28;97025;-63
2023/11/04 04:46:23;;;;;;;2.40;1.55;;;;;;;6.64;82.69;97999.44;30836353;28;97129;-63
2023/11/04 05:01:24;;;;;;;3.92;1.83;;;;;;;6.63;82.72;98008.38;30834998;28;121730;-62
2023/11/04 05:16:24;;;;;;;4.75;2.20;;;;;;;6.51;82.20;98019.53;30833536;28;121606;-62
2023/11/04 05:31:25;;;;;;;4.10;2.50;;;;;;;6.42;82.62;98034.78;30833118;28;96919;-64
2023/11/04 05:46:25;;;;;;;4.85;2.90;;;;;;;6.41;82.28;98054.28;30848163;28;124579;-64
2023/11/04 06:01:25;;;;;;;6.50;2.88;;;;;;;6.33;81.59;98082.72;30850048;28;125458;-64
2023/11/04 06:16:32;;;;;;;4.70;2.63;;;;;;;6.21;81.70;98085.09;30847872;28;110688;-61
2023/11/04 06:31:32;;;;;;;7.13;3.63;;;;;;;6.33;81.97;98088.84;30847508;28;97190;-62
2023/11/04 06:46:33;;;;;;;5.47;3.70;;;;;;;6.65;82.20;98110.34;30843012;28;125230;-62
2023/11/04 07:01:33;;;;;;;6.72;3.70;;;;;;;7.11;81.25;98128.28;30842330;28;126716;-62
2023/11/04 07:16:34;;;;;;;7.13;3.80;;;;;;;7.97;81.58;98136.59;30842217;28;125286;-62
2023/11/04 07:31:35;;;;;;;10.43;4.23;;;;;;;9.85;80.58;98133.28;30839209;28;97836;-63
2023/11/04 07:46:36;;;;;;;5.65;3.65;;;;;;;10.61;78.08;98118.91;30837792;28;96769;-62
2023/11/04 08:01:36;;;;;;;6.53;2.90;;;;;;;11.65;76.67;98127.88;30838339;28;97573;-63
2023/11/04 08:16:38;;;;;;;6.93;3.50;;;;;;;17.20;68.66;98130.91;30836295;28;96735;-63
2023/11/04 08:31:38;;;;;;;4.03;1.77;;;;;;;21.91;60.34;98134.94;30837515;28;97668;-63
2023/11/04 08:46:39;;;;;;;5.23;2.13;;;;;;;24.45;48.19;98136.81;30834353;28;126559;-63
2023/11/04 09:01:39;;;;;;;5.22;1.90;;;;;;;26.91;44.29;98140.53;30834326;28;97202;-63
2023/11/04 09:16:41;;;;;;;5.05;1.85;;;;;;;26.73;34.87;98126.16;30841389;28;122615;-64
2023/11/04 09:31:42;;;;;;;5.90;1.90;;;;;;;23.02;34.90;98147.09;30851752;28;97245;-63
2023/11/04 09:46:42;;;;;;;3.60;1.80;;;;;;;20.74;39.19;98119.94;30849362;28;128101;-63
2023/11/04 10:01:42;;;;;;;7.07;1.42;;;;;;;29.25;28.11;98091.28;30847752;28;126177;-64
2023/11/04 10:16:44;;;;;;;3.95;1.40;;;;;;;28.33;25.67;98075.06;30848546;28;115202;-64
2023/11/04 10:31:47;;;;;;;5.37;1.17;;;;;;;32.02;22.33;98049.72;30847287;28;97366;-64
2023/11/04 10:46:57;;;;;;;4.20;1.40;;;;;;;32.90;20.08;98042.50;30844372;28;97651;-64
2023/11/04 11:01:59;;;;;;;2.77;1.03;;;;;;;32.52;19.83;98033.25;30843635;28;97413;-64
2023/11/04 11:17:03;;;;;;;2.53;1.00;;;;;;;32.05;19.61;98010.44;30842054;28;96809;-64
2023/11/04 11:32:05;;;;;;;5.13;0.83;;;;;;;25.49;24.03;97999.28;30841241;28;97848;-64
2023/11/04 11:47:06;;;;;;;2.50;0.70;;;;;;;26.50;24.00;97992.59;30839650;28;97333;-64
2023/11/04 12:02:07;;;;;;;2.00;0.60;;;;;;;28.42;21.75;97950.94;30838677;28;97300;-64
2023/11/04 12:17:08;;;;;;;3.93;0.90;;;;;;;29.15;21.23;97943.72;30838482;28;97032;-63
2023/11/04 12:32:19;;;;;;;2.75;0.90;;;;;;;26.83;23.64;97910.81;30835950;28;97228;-63
2023/11/04 12:47:26;;;;;;;2.57;0.77;;;;;;;29.62;20.29;97912.91;30838131;28;98028;-64
2023/11/04 13:02:26;;;;;;;2.73;0.97;;;;;;;31.41;18.88;97897.22;30855127;28;96879;-64
2023/11/04 13:17:27;;;;;;;2.17;0.90;;;;;;;31.58;18.09;97887.69;30852747;28;97092;-64
2023/11/04 13:32:27;;;;;;;4.47;1.00;;;;;;;29.99;19.85;97877.00;30853382;28;97134;-64
2023/11/04 13:47:30;;;;;;;2.40;0.80;;;;;;;28.51;20.82;97864.00;30851719;28;96681;-63
2023/11/04 14:02:30;;;;;;;1.57;0.70;;;;;;;27.17;22.61;97851.53;30849075;28;97224;-63
2023/11/04 14:17:30;;;;;;;3.75;1.63;;;;;;;24.93;23.42;97857.50;30848136;28;125425;-63
2023/11/04 14:32:32;;;;;;;5.60;2.75;;;;;;;19.33;30.90;97852.44;30846122;28;96842;-63
2023/11/04 14:47:32;;;;;;;4.87;2.33;;;;;;;16.69;35.97;97827.66;30844417;28;97461;-63
2023/11/04 15:02:32;;;;;;;7.85;3.30;;;;;;;14.24;41.06;97835.66;30844171;28;96833;-63
2023/11/04 15:17:33;;;;;;;7.10;2.80;;;;;;;11.39;46.34;97809.97;30841089;28;124482;-63
2023/11/04 15:32:33;;;;;;;46.35;12.48;;;;;;;9.97;51.06;97793.78;30839680;28;110035;-62
2023/11/04 15:47:34;;;;;;;7.07;3.20;;;;;;;9.09;54.00;97772.72;30838792;28;126856;-62
2023/11/04 16:02:34;;;;;;;10.32;4.35;;;;;;;8.45;56.07;97766.75;30838997;28;96726;-63
2023/11/04 16:17:36;;;;;;;10.00;3.73;;;;;;;7.96;58.06;97753.16;30835508;28;97428;-63
2023/11/04 16:32:37;;;;;;;12.48;5.22;;;;;;;7.50;59.20;97733.81;30836463;28;96715;-63
2023/11/04 16:47:37;;;;;;;13.13;5.55;;;;;;;7.20;60.73;97713.16;30834194;28;96636;-62
2023/11/04 17:02:37;;;;;;;9.55;3.63;;;;;;;6.95;60.92;97705.09;30833690;28;96704;-63
2023/11/04 17:17:37;;;;;;;13.52;5.18;;;;;;;6.80;62.10;97701.88;30830431;28;126835;-63
2023/11/04 17:32:38;;;;;;;10.45;4.60;;;;;;;6.51;62.85;97651.88;30833949;28;125584;-62
2023/11/04 17:47:38;;;;;;;8.15;4.35;;;;;;;6.28;64.34;97654.94;30850291;28;124245;-62
2023/11/04 18:02:39;;;;;;;11.30;4.72;;;;;;;6.17;64.76;97651.09;30849925;28;96879;-62
2023/11/04 18:17:39;;;;;;;7.45;4.22;;;;;;;5.92;65.61;97648.22;30847962;28;97416;-63
2023/11/04 18:32:39;;;;;;;12.52;5.13;;;;;;;5.70;66.83;97629.91;30845952;28;125391;-63
2023/11/04 18:47:39;;;;;;;7.28;4.70;;;;;;;5.41;67.02;97621.34;30842028;28;126300;-62
2023/11/04 19:02:40;;;;;;;10.27;5.53;;;;;;;5.28;67.83;97575.63;30842669;28;126704;-62
2023/11/04 19:17:40;;;;;;;11.00;6.07;;;;;;;5.24;68.51;97530.34;30840749;28;96851;-62
2023/11/04 19:32:40;;;;;;;9.32;5.10;;;;;;;5.33;69.10;97499.25;30838257;28;127082;-62
2023/11/04 19:47:41;;;;;;;12.68;6.22;;;;;;;5.31;69.25;97496.03;30838625;28;121311;-62
2023/11/04 20:02:42;;;;;;;17.38;7.97;;;;;;;5.21;69.65;97499.06;30835807;28;125529;-62
2023/11/04 20:17:42;;;;;;;9.60;4.97;;;;;;;5.11;70.28;97433.47;30837333;28;96677;-62
2023/11/04 20:32:43;;;;;;;9.60;5.47;;;;;;;5.09;70.55;97436.31;30837160;28;97178;-62
2023/11/04 20:47:43;;;;;;;8.85;4.80;;;;;;;5.05;71.19;97450.94;30835558;28;97393;-62
2023/11/04 21:02:44;;;;;;;7.35;4.57;;;;;;;5.17;71.61;97434.50;30832723;28;126800;-62
2023/11/04 21:17:44;;;;;;;8.77;4.57;;;;;;;5.23;71.85;97421.28;30849129;28;96695;-63
2023/11/04 21:32:45;;;;;;;9.63;5.40;;;;;;;5.28;71.84;97425.97;30852598;28;125556;-62
2023/11/04 21:47:45;;;;;;;9.68;5.82;;;;;;;5.24;72.16;97416.84;30852547;28;124697;-62
2023/11/04 22:02:45;;;;;;;13.35;6.70;;;;;;;5.17;72.35;97382.53;30851820;28;125334;-62
2023/11/04 22:17:45;;;;;;;11.18;6.15;;;;;;;5.36;72.99;97412.56;30847537;28;125533;-64
2023/11/04 22:32:46;;;;;;;7.38;3.95;;;;;;;5.60;72.98;97354.81;30848831;28;101456;-63
2023/11/04 22:47:46;;;;;;;8.23;5.00;;;;;;;5.75;72.98;97354.56;30847325;28;125496;-64
2023/11/04 23:02:47;;;;;;;8.70;4.05;;;;;;;5.89;73.26;97308.59;30847162;28;119309;-64
2023/11/04 23:17:47;;;;;;;9.37;5.20;;;;;;;6.03;73.13;97287.44;30846387;28;96624;-63
2023/11/04 23:32:47;;;;;;;7.32;3.90;;;;;;;6.18;72.90;97282.66;30843290;28;97044;-63
2023/11/04 23:47:48;;;;;;;7.43;4.65;;;;;;;6.24;73.16;97276.50;30842932;28;106214;-63
